Time;durP1;ratioP1;P1;durP2;ratioP2;P2;SDS_P1;SDS_P2;PMS_P1;PMS_P2;Temp;Humidity;BMP_temperature;BMP_pressure;BME280_temperature;BME280_humidity;BME280_pressure;Samples;Min_cycle;Max_cycle;Signal;HPM_P1;HPM_P2
2021/11/12 00:04:34;;;;;;;69.10;48.50;;;2.40;99.90;;;;;;5057740;28;20536;-68
2021/11/12 00:12:38;;;;;;;61.23;43.43;;;2.30;99.90;;;;;;5003807;28;20829;-71
2021/11/12 00:15:06;;;;;;;71.53;47.97;;;2.20;99.90;;;;;;5060370;28;20461;-72
2021/11/12 00:17:34;;;;;;;71.20;48.40;;;2.20;99.90;;;;;;5056379;28;20467;-70
2021/11/12 00:20:02;;;;;;;80.80;47.47;;;2.20;99.90;;;;;;5051717;28;21000;-69
2021/11/12 00:22:30;;;;;;;72.17;47.57;;;2.20;99.90;;;;;;5059802;28;20808;-72
2021/11/12 00:25:01;;;;;;;73.03;47.97;;;2.30;99.90;;;;;;5055220;28;20495;-73
2021/11/12 00:27:29;;;;;;;78.07;48.30;;;2.30;99.90;;;;;;5062083;28;20517;-73
2021/11/12 00:30:04;;;;;;;76.53;47.07;;;2.30;99.90;;;;;;5064925;28;20458;-74
2021/11/12 00:32:41;;;;;;;82.53;49.30;;;2.20;99.90;;;;;;5076321;28;20472;-72
2021/11/12 00:35:16;;;;;;;79.47;49.80;;;2.20;99.90;;;;;;5078311;28;20463;-70
2021/11/12 00:37:52;;;;;;;77.47;47.33;;;2.20;99.90;;;;;;5070643;28;20454;-71
2021/11/12 00:40:23;;;;;;;82.60;46.33;;;2.20;99.90;;;;;;5080320;28;20546;-72
2021/11/12 00:43:07;;;;;;;84.60;49.30;;;2.20;99.90;;;;;;5072574;28;20477;-73
2021/11/12 00:45:37;;;;;;;91.80;51.83;;;2.20;99.90;;;;;;5078191;28;20461;-73
2021/11/12 00:48:13;;;;;;;73.40;51.90;;;2.20;99.90;;;;;;5085266;28;20493;-74
2021/11/12 00:50:58;;;;;;;93.47;51.27;;;2.10;99.90;;;;;;5083681;28;20464;-73
2021/11/12 00:56:27;;;;;;;73.07;49.03;;;2.10;99.90;;;;;;5025955;28;21016;-68
2021/11/12 00:58:56;;;;;;;84.87;49.37;;;2.20;99.90;;;;;;5019328;28;20468;-71
2021/11/12 01:01:24;;;;;;;73.53;50.07;;;2.10;99.90;;;;;;5041573;28;20462;-71
2021/11/12 01:03:52;;;;;;;75.73;49.40;;;2.00;99.90;;;;;;5080937;28;20550;-70
2021/11/12 01:06:20;;;;;;;74.70;47.53;;;2.00;99.90;;;;;;5081922;28;20545;-69
2021/11/12 01:08:48;;;;;;;83.33;49.03;;;1.90;99.90;;;;;;5091875;28;20584;-68
2021/11/12 01:11:16;;;;;;;89.73;52.27;;;1.80;99.90;;;;;;5083397;28;21066;-68
2021/11/12 01:13:45;;;;;;;86.57;52.57;;;1.90;99.90;;;;;;5082031;28;20530;-67
2021/11/12 01:16:13;;;;;;;83.47;50.67;;;2.00;99.90;;;;;;5083260;28;20467;-69
2021/11/12 01:18:41;;;;;;;69.67;49.20;;;2.00;99.90;;;;;;5077650;28;20547;-69
2021/11/12 01:21:13;;;;;;;79.57;50.00;;;2.00;99.90;;;;;;5079045;28;20462;-70
2021/11/12 01:23:43;;;;;;;70.83;47.73;;;2.00;99.90;;;;;;5086255;28;20570;-68
2021/11/12 01:26:11;;;;;;;74.67;50.33;;;1.90;99.90;;;;;;5085366;28;20603;-67
2021/11/12 01:28:40;;;;;;;80.40;51.43;;;1.90;99.90;;;;;;5081809;28;20460;-69
2021/11/12 01:31:09;;;;;;;85.10;54.40;;;2.00;99.90;;;;;;5066756;28;20848;-69
2021/11/12 01:33:36;;;;;;;84.43;48.93;;;2.00;99.90;;;;;;5064686;28;20545;-69
2021/11/12 01:36:12;;;;;;;104.27;54.20;;;2.00;99.90;;;;;;5057911;28;20476;-70
2021/11/12 01:38:39;;;;;;;73.60;49.47;;;1.90;99.90;;;;;;5063275;28;20906;-69
2021/11/12 01:41:06;;;;;;;77.40;49.60;;;1.80;99.90;;;;;;5065504;28;20856;-68
2021/11/12 01:43:38;;;;;;;73.33;48.00;;;1.80;99.90;;;;;;5064934;28;20464;-69
2021/11/12 01:46:20;;;;;;;80.80;50.87;;;1.70;99.90;;;;;;5065405;28;20908;-70
2021/11/12 01:49:09;;;;;;;77.13;51.63;;;1.60;99.90;;;;;;5064198;28;20466;-70
2021/11/12 01:51:42;;;;;;;82.70;50.77;;;1.60;99.90;;;;;;5058053;28;20465;-69
2021/11/12 01:54:24;;;;;;;92.33;53.00;;;1.70;99.90;;;;;;5063302;28;20459;-70
2021/11/12 01:57:10;;;;;;;91.63;53.03;;;1.90;99.90;;;;;;5065376;28;20469;-69
2021/11/12 01:59:38;;;;;;;110.30;50.43;;;1.80;99.90;;;;;;5063600;28;20871;-69
2021/11/12 02:02:08;;;;;;;103.13;52.17;;;1.80;99.90;;;;;;5067149;28;20463;-72
2021/11/12 02:04:38;;;;;;;93.70;53.23;;;1.70;99.90;;;;;;5059374;28;20498;-69
2021/11/12 02:07:05;;;;;;;81.63;47.90;;;1.70;99.90;;;;;;5056012;28;20552;-69
2021/11/12 02:09:33;;;;;;;82.97;51.37;;;1.70;99.90;;;;;;5059595;28;20463;-70
2021/11/12 02:12:05;;;;;;;102.37;51.10;;;1.60;99.90;;;;;;5053347;28;20460;-71
2021/11/12 02:14:33;;;;;;;98.57;51.03;;;1.50;99.90;;;;;;5057449;28;20471;-72
2021/11/12 02:17:06;;;;;;;91.80;52.40;;;1.40;99.90;;;;;;5063269;28;20498;-71
2021/11/12 02:19:35;;;;;;;69.73;46.77;;;1.40;99.90;;;;;;5055554;28;20473;-71
2021/11/12 02:22:09;;;;;;;96.73;50.87;;;1.30;99.90;;;;;;5059036;28;20964;-73
2021/11/12 02:24:41;;;;;;;87.30;52.50;;;1.20;99.90;;;;;;5061958;28;20551;-70
2021/11/12 02:27:11;;;;;;;81.50;49.30;;;1.20;99.90;;;;;;5064733;28;20466;-70
2021/11/12 02:29:42;;;;;;;93.83;49.57;;;1.10;99.90;;;;;;5067030;28;20540;-72
2021/11/12 02:32:19;;;;;;;99.17;50.17;;;1.00;99.90;;;;;;5062271;28;20450;-71
2021/11/12 02:34:47;;;;;;;74.27;47.50;;;0.90;99.90;;;;;;5058690;28;20983;-69
2021/11/12 02:37:16;;;;;;;82.70;48.87;;;0.80;99.90;;;;;;5061238;28;20474;-71
2021/11/12 02:39:45;;;;;;;87.63;51.17;;;0.70;99.90;;;;;;5063271;28;20474;-72
2021/11/12 02:42:13;;;;;;;72.80;48.83;;;0.60;99.90;;;;;;5060944;28;21094;-70
2021/11/12 02:44:41;;;;;;;80.73;44.80;;;0.60;99.90;;;;;;5059814;28;20846;-71
2021/11/12 02:47:10;;;;;;;57.30;44.30;;;0.60;99.90;;;;;;5062771;28;20465;-72
2021/11/12 02:49:38;;;;;;;72.03;42.70;;;0.60;99.90;;;;;;5061549;28;20470;-72
2021/11/12 02:52:06;;;;;;;71.30;46.53;;;0.60;99.90;;;;;;5060224;28;20519;-72
2021/11/12 02:54:35;;;;;;;73.53;46.43;;;0.60;99.90;;;;;;5060065;28;20491;-70
2021/11/12 02:57:04;;;;;;;84.73;46.37;;;0.70;99.90;;;;;;5065978;28;20562;-70
2021/11/12 02:59:33;;;;;;;66.90;43.90;;;0.80;99.90;;;;;;5063619;28;20470;-71
2021/11/12 03:02:04;;;;;;;55.83;42.90;;;0.80;99.90;;;;;;5058291;28;20534;-72
2021/11/12 03:04:32;;;;;;;68.57;44.93;;;0.90;99.90;;;;;;5060339;28;20501;-70
2021/11/12 03:06:59;;;;;;;140.23;46.47;;;1.00;99.90;;;;;;5061606;28;20473;-72
2021/11/12 03:09:28;;;;;;;157.07;46.70;;;1.00;99.90;;;;;;5060004;28;20461;-70
2021/11/12 03:11:58;;;;;;;427.87;52.70;;;1.00;99.90;;;;;;5061317;28;20510;-69
2021/11/12 03:14:25;;;;;;;254.67;48.40;;;1.00;99.90;;;;;;5063088;28;20472;-70
2021/11/12 03:16:53;;;;;;;434.20;57.13;;;1.00;99.90;;;;;;5059528;28;20557;-69
2021/11/12 03:19:24;;;;;;;470.97;53.27;;;1.10;99.90;;;;;;5058015;28;20468;-72
2021/11/12 03:21:57;;;;;;;576.70;57.00;;;1.10;99.90;;;;;;5052933;28;20470;-70
2021/11/12 03:24:27;;;;;;;431.73;56.83;;;1.10;99.90;;;;;;5057879;28;20470;-71
2021/11/12 03:27:06;;;;;;;578.83;62.27;;;1.20;99.90;;;;;;5057088;28;20577;-70
2021/11/12 03:30:11;;;;;;;656.27;65.37;;;1.20;99.90;;;;;;5056887;28;20469;-69
2021/11/12 04:00:26;;;;;;;265.43;46.43;;;1.60;99.90;;;;;;5059617;28;20484;-70
2021/11/12 04:03:07;;;;;;;358.77;47.63;;;1.60;99.90;;;;;;5054550;28;20604;-72
2021/11/12 04:06:02;;;;;;;427.73;50.13;;;1.70;99.90;;;;;;5060792;28;20474;-70
2021/11/12 04:19:42;;;;;;;652.77;64.80;;;1.90;99.90;;;;;;5062334;28;20481;-72
2021/11/12 04:22:18;;;;;;;635.20;62.87;;;1.90;99.90;;;;;;5061661;28;20464;-69
2021/11/12 04:49:11;;;;;;;165.50;42.60;;;2.40;99.90;;;;;;5081089;28;20496;-72
2021/11/12 05:34:52;;;;;;;188.17;41.80;;;2.50;99.90;;;;;;5055134;28;20481;-72
2021/11/12 05:45:56;;;;;;;128.77;40.67;;;2.80;99.90;;;;;;5054682;28;20455;-72
2021/11/12 05:51:22;;;;;;;365.77;50.13;;;2.70;99.90;;;;;;5052110;28;20462;-69
2021/11/12 05:56:34;;;;;;;210.97;42.20;;;2.80;99.90;;;;;;5061484;28;20980;-72
2021/11/12 05:59:03;;;;;;;353.27;48.30;;;2.80;99.90;;;;;;5064281;28;20465;-72
2021/11/12 06:01:31;;;;;;;189.63;42.63;;;2.90;99.90;;;;;;5056622;28;20457;-71
2021/11/12 06:03:58;;;;;;;349.90;48.57;;;2.80;99.90;;;;;;5063925;28;20485;-70
2021/11/12 06:06:25;;;;;;;415.73;51.30;;;2.90;99.90;;;;;;5061621;28;20485;-68
2021/11/12 06:08:53;;;;;;;287.47;48.70;;;2.90;99.90;;;;;;5057025;28;20470;-69
2021/11/12 06:11:23;;;;;;;513.67;49.47;;;2.90;99.90;;;;;;5062167;28;20459;-71
2021/11/12 06:13:50;;;;;;;320.83;45.23;;;3.00;99.90;;;;;;5059565;28;20463;-72
2021/11/12 06:16:18;;;;;;;463.47;49.30;;;3.00;99.90;;;;;;5057525;28;20849;-71
2021/11/12 06:18:46;;;;;;;474.00;50.80;;;3.10;99.90;;;;;;5059186;28;20525;-69
2021/11/12 06:21:13;;;;;;;665.33;63.43;;;3.10;99.90;;;;;;5060238;28;20833;-70
2021/11/12 06:23:41;;;;;;;613.77;58.20;;;3.10;99.90;;;;;;5062938;28;20912;-72
2021/11/12 06:26:09;;;;;;;291.37;45.27;;;3.00;99.90;;;;;;5060466;28;20516;-72
2021/11/12 06:28:36;;;;;;;235.73;43.97;;;3.10;99.90;;;;;;5056137;28;20549;-72
2021/11/12 06:31:05;;;;;;;352.27;45.97;;;3.10;99.90;;;;;;5057706;28;20489;-73
2021/11/12 06:33:34;;;;;;;342.70;49.10;;;3.10;99.90;;;;;;5057305;28;20525;-70
2021/11/12 06:36:02;;;;;;;204.73;41.60;;;3.00;99.90;;;;;;5053997;28;20972;-69
2021/11/12 06:38:31;;;;;;;235.87;40.07;;;3.10;99.90;;;;;;5062925;28;20481;-69
2021/11/12 06:40:59;;;;;;;213.23;41.57;;;3.10;99.90;;;;;;5062756;28;20459;-71
2021/11/12 06:43:29;;;;;;;148.80;38.73;;;3.00;99.90;;;;;;5058255;28;20490;-72
2021/11/12 06:51:27;;;;;;;302.97;44.40;;;3.10;99.90;;;;;;5062035;28;20466;-69
2021/11/12 06:53:57;;;;;;;291.73;45.10;;;3.10;99.90;;;;;;5056031;28;20817;-73
2021/11/12 06:56:24;;;;;;;403.67;52.47;;;3.10;99.90;;;;;;5064454;28;20570;-70
2021/11/12 06:58:52;;;;;;;423.57;54.60;;;3.20;99.90;;;;;;5056383;28;20478;-70
2021/11/12 07:01:19;;;;;;;533.37;57.67;;;3.20;99.90;;;;;;5062061;28;20474;-71
2021/11/12 07:03:47;;;;;;;523.97;56.23;;;3.20;99.90;;;;;;5059196;28;20464;-70
2021/11/12 07:06:14;;;;;;;233.53;46.20;;;3.10;99.90;;;;;;5051211;28;20471;-72
2021/11/12 07:08:42;;;;;;;311.30;45.67;;;3.10;99.90;;;;;;5060654;28;20968;-72
2021/11/12 07:11:09;;;;;;;348.00;47.43;;;3.10;99.90;;;;;;5062662;28;20456;-73
2021/11/12 07:13:36;;;;;;;321.77;47.73;;;3.10;99.90;;;;;;5057034;28;20471;-69
2021/11/12 07:16:03;;;;;;;159.93;40.20;;;3.00;99.90;;;;;;5056820;28;20896;-72
2021/11/12 07:18:31;;;;;;;348.13;45.57;;;3.10;99.90;;;;;;5061143;28;21092;-71
2021/11/12 07:21:00;;;;;;;268.60;46.00;;;3.10;99.90;;;;;;5059773;28;20461;-72
2021/11/12 07:23:28;;;;;;;363.20;48.27;;;3.20;99.90;;;;;;5058004;28;20463;-69
2021/11/12 07:25:56;;;;;;;177.17;41.10;;;3.20;99.90;;;;;;5060087;28;20485;-67
2021/11/12 07:28:25;;;;;;;379.93;48.57;;;3.30;99.90;;;;;;5062494;28;20467;-69
2021/11/12 07:30:54;;;;;;;175.67;40.80;;;3.30;99.90;;;;;;5071548;28;20577;-67
2021/11/12 07:33:21;;;;;;;412.57;51.90;;;3.40;99.90;;;;;;5076672;28;20565;-69
2021/11/12 07:35:50;;;;;;;309.67;48.70;;;3.40;99.90;;;;;;5080200;28;20492;-67
2021/11/12 07:38:23;;;;;;;331.60;50.90;;;3.50;99.90;;;;;;5078787;28;20470;-67
2021/11/12 07:44:12;;;;;;;440.83;50.73;;;3.50;99.90;;;;;;5015225;28;20476;-67
2021/11/12 07:46:41;;;;;;;149.23;41.97;;;3.40;99.90;;;;;;5016770;28;20463;-70
2021/11/12 07:49:11;;;;;;;95.33;40.40;;;3.50;99.90;;;;;;5046696;28;20463;-68
2021/11/12 07:51:40;;;;;;;177.43;42.20;;;3.50;99.90;;;;;;5068343;28;20459;-69
2021/11/12 07:54:09;;;;;;;72.20;40.33;;;3.40;99.90;;;;;;5073725;28;20848;-68
2021/11/12 07:56:36;;;;;;;83.97;40.50;;;3.50;99.90;;;;;;5073913;28;20579;-69
2021/11/12 07:59:04;;;;;;;84.53;39.87;;;3.50;99.90;;;;;;5069539;28;20463;-70
2021/11/12 08:01:31;;;;;;;65.00;42.33;;;3.60;99.90;;;;;;5072003;28;20779;-70
2021/11/12 08:04:00;;;;;;;86.90;40.03;;;3.60;99.90;;;;;;5076964;28;20458;-71
2021/11/12 08:06:28;;;;;;;75.27;40.23;;;3.60;99.90;;;;;;5069227;28;21204;-71
2021/11/12 08:08:58;;;;;;;69.43;40.07;;;3.70;99.90;;;;;;5070286;28;20495;-69
2021/11/12 08:11:32;;;;;;;58.10;35.23;;;3.70;99.90;;;;;;5072335;28;20462;-69
2021/11/12 08:14:06;;;;;;;64.57;38.50;;;3.70;99.90;;;;;;5070718;28;20463;-71
2021/11/12 08:16:49;;;;;;;94.77;38.13;;;3.90;99.90;;;;;;5069400;28;20900;-70
2021/11/12 08:19:18;;;;;;;78.17;40.07;;;3.90;99.90;;;;;;5068547;28;20558;-70
2021/11/12 08:21:50;;;;;;;62.37;38.27;;;4.00;99.90;;;;;;5075757;28;20458;-67
2021/11/12 08:24:21;;;;;;;65.90;39.23;;;4.00;99.90;;;;;;5070138;28;20569;-69
2021/11/12 08:27:01;;;;;;;68.90;39.50;;;4.20;99.90;;;;;;5072104;28;20488;-69
2021/11/12 08:29:42;;;;;;;69.33;38.90;;;4.10;99.90;;;;;;5072304;28;20469;-70
2021/11/12 08:32:22;;;;;;;56.57;36.10;;;4.00;99.90;;;;;;5056049;28;20468;-69
2021/11/12 08:37:42;;;;;;;57.30;37.60;;;4.00;99.90;;;;;;5055698;28;20459;-67
2021/11/12 08:40:17;;;;;;;49.07;36.03;;;4.00;99.90;;;;;;5059422;28;20466;-71
2021/11/12 08:42:48;;;;;;;70.30;35.73;;;4.10;99.90;;;;;;5052874;28;20455;-68
2021/11/12 08:45:19;;;;;;;55.03;34.03;;;4.20;99.90;;;;;;5053151;28;21293;-70
2021/11/12 08:47:49;;;;;;;67.03;34.50;;;4.00;99.90;;;;;;5052193;28;20473;-71
2021/11/12 08:50:18;;;;;;;52.33;34.33;;;4.10;99.90;;;;;;5055800;28;20986;-69
2021/11/12 08:52:46;;;;;;;51.97;33.27;;;4.10;99.90;;;;;;5054772;28;20978;-71
2021/11/12 08:55:13;;;;;;;49.63;34.87;;;4.10;99.90;;;;;;5058059;28;20459;-68
2021/11/12 08:57:40;;;;;;;59.30;36.47;;;4.10;99.90;;;;;;5054022;28;20470;-68
2021/11/12 09:00:10;;;;;;;51.80;34.33;;;4.10;99.90;;;;;;5052794;28;20482;-70
2021/11/12 09:02:37;;;;;;;56.13;32.90;;;4.30;99.90;;;;;;5048317;28;21062;-70
2021/11/12 09:05:04;;;;;;;53.17;33.10;;;4.50;99.90;;;;;;5055706;28;20463;-70
2021/11/12 09:07:32;;;;;;;59.70;33.30;;;4.60;99.90;;;;;;5055681;28;20569;-71
2021/11/12 09:10:00;;;;;;;53.93;34.60;;;4.80;99.90;;;;;;5057806;28;20505;-71
2021/11/12 09:12:29;;;;;;;56.67;35.10;;;4.80;99.90;;;;;;5057149;28;20840;-69
2021/11/12 09:14:57;;;;;;;51.67;32.07;;;4.90;99.90;;;;;;5054056;28;20547;-72
2021/11/12 09:17:28;;;;;;;56.43;32.90;;;4.90;99.90;;;;;;5054500;28;20496;-69
2021/11/12 09:19:57;;;;;;;63.10;36.37;;;5.00;99.90;;;;;;5052980;28;20465;-70
2021/11/12 09:22:27;;;;;;;63.00;35.40;;;5.20;99.90;;;;;;5049941;28;20965;-70
2021/11/12 09:24:54;;;;;;;55.27;36.10;;;5.40;99.90;;;;;;5056241;28;20466;-71
2021/11/12 09:27:23;;;;;;;51.17;35.40;;;5.30;99.90;;;;;;5055176;28;20497;-68
2021/11/12 09:29:52;;;;;;;57.80;35.67;;;5.30;99.90;;;;;;5057518;28;20830;-68
2021/11/12 09:32:19;;;;;;;51.97;35.17;;;5.50;99.90;;;;;;5070898;28;21236;-68
2021/11/12 09:34:48;;;;;;;61.03;35.90;;;5.70;99.90;;;;;;5073299;28;20477;-70
2021/11/12 09:37:20;;;;;;;63.73;36.37;;;5.70;99.90;;;;;;5070841;28;20489;-70
2021/11/12 09:39:53;;;;;;;61.00;37.20;;;5.60;99.90;;;;;;5080279;28;20545;-70
2021/11/12 09:42:21;;;;;;;48.50;34.70;;;5.70;99.90;;;;;;5074765;28;21081;-68
2021/11/12 09:44:48;;;;;;;59.63;37.30;;;5.70;99.90;;;;;;5076465;28;20471;-68
2021/11/12 09:47:16;;;;;;;63.07;38.90;;;5.80;99.90;;;;;;5083436;28;20464;-68
2021/11/12 09:49:43;;;;;;;67.00;39.33;;;5.80;99.90;;;;;;5073570;28;20501;-68
2021/11/12 09:52:13;;;;;;;65.03;38.90;;;5.80;99.90;;;;;;5071274;28;20459;-71
2021/11/12 09:54:40;;;;;;;66.03;38.23;;;6.00;99.90;;;;;;5070056;28;20820;-74
2021/11/12 09:57:09;;;;;;;64.83;37.27;;;5.90;99.90;;;;;;5073609;28;20969;-72
2021/11/12 09:59:36;;;;;;;57.13;39.03;;;6.00;99.90;;;;;;5070686;28;20462;-71
2021/11/12 10:02:06;;;;;;;61.93;39.80;;;6.20;99.90;;;;;;5068971;28;20540;-71
2021/11/12 10:04:35;;;;;;;60.23;38.60;;;6.30;99.90;;;;;;5073990;28;20466;-71
2021/11/12 10:07:11;;;;;;;59.27;40.13;;;6.30;99.90;;;;;;5072348;28;20501;-71
2021/11/12 10:09:40;;;;;;;63.87;42.03;;;6.40;99.90;;;;;;5076054;28;20971;-71
2021/11/12 10:12:09;;;;;;;59.27;40.03;;;6.60;99.90;;;;;;5072752;28;20512;-71
2021/11/12 10:14:41;;;;;;;54.63;40.67;;;6.70;99.90;;;;;;5074535;28;20542;-71
2021/11/12 10:17:09;;;;;;;58.17;39.97;;;6.80;99.90;;;;;;5075707;28;20527;-71
2021/11/12 10:19:45;;;;;;;61.53;40.33;;;7.00;99.90;;;;;;5074063;28;20689;-71
2021/11/12 10:22:12;;;;;;;60.43;41.40;;;6.80;99.90;;;;;;5078061;28;20474;-71
2021/11/12 10:24:43;;;;;;;58.80;41.10;;;6.80;99.90;;;;;;5079535;28;20496;-71
2021/11/12 10:27:12;;;;;;;63.83;41.70;;;6.90;99.90;;;;;;5075939;28;20488;-71
2021/11/12 10:29:45;;;;;;;56.83;38.90;;;7.20;99.90;;;;;;5080481;28;20554;-71
2021/11/12 10:32:17;;;;;;;50.80;39.40;;;7.30;99.90;;;;;;5075246;28;21069;-71
2021/11/12 10:34:44;;;;;;;51.80;39.87;;;7.10;99.90;;;;;;5071367;28;22183;-69
2021/11/12 10:37:16;;;;;;;53.57;39.70;;;7.20;99.90;;;;;;5076140;28;20493;-69
2021/11/12 10:39:46;;;;;;;53.87;39.73;;;7.30;99.90;;;;;;5071284;28;20492;-68
2021/11/12 10:42:17;;;;;;;57.00;41.87;;;7.00;99.90;;;;;;5076887;28;20468;-68
2021/11/12 10:44:46;;;;;;;64.67;42.90;;;7.10;99.90;;;;;;5076523;28;20463;-69
2021/11/12 10:47:14;;;;;;;64.83;42.50;;;7.10;99.90;;;;;;5072259;28;20553;-69
2021/11/12 10:49:41;;;;;;;58.40;42.60;;;7.30;99.90;;;;;;5073460;28;20470;-70
2021/11/12 10:52:11;;;;;;;68.60;44.10;;;7.50;99.90;;;;;;5078701;28;20480;-69
2021/11/12 10:54:52;;;;;;;67.80;45.40;;;7.60;99.90;;;;;;5077843;28;20461;-69
2021/11/12 10:57:20;;;;;;;65.93;44.77;;;7.60;99.90;;;;;;5078307;28;20500;-71
2021/11/12 11:00:08;;;;;;;72.57;47.50;;;7.70;99.90;;;;;;5068967;28;20474;-70
2021/11/12 11:02:38;;;;;;;70.93;47.63;;;7.90;99.90;;;;;;5065431;28;20561;-69
2021/11/12 11:05:08;;;;;;;72.70;46.60;;;8.30;99.90;;;;;;5072370;28;21239;-69
2021/11/12 11:07:35;;;;;;;65.97;45.50;;;8.40;99.90;;;;;;5071538;28;20472;-69
2021/11/12 11:10:06;;;;;;;70.17;46.30;;;8.70;99.90;;;;;;5071073;28;20664;-69
2021/11/12 11:12:38;;;;;;;70.00;47.63;;;9.10;99.90;;;;;;5084250;28;20942;-72
2021/11/12 11:15:18;;;;;;;66.60;46.00;;;9.30;99.90;;;;;;5073798;28;20466;-69
2021/11/12 11:17:46;;;;;;;62.00;45.53;;;9.40;99.90;;;;;;5073404;28;20500;-69
2021/11/12 11:20:17;;;;;;;59.40;44.83;;;9.90;99.90;;;;;;5079778;28;21032;-70
2021/11/12 11:22:49;;;;;;;67.87;45.10;;;10.50;99.90;;;;;;5075515;28;20506;-72
2021/11/12 11:25:18;;;;;;;50.30;41.73;;;10.80;99.90;;;;;;5073666;28;20833;-70
2021/11/12 11:27:46;;;;;;;53.37;41.33;;;11.40;99.90;;;;;;5069518;28;20455;-69
2021/11/12 11:30:14;;;;;;;63.53;44.70;;;11.70;99.90;;;;;;5068377;28;20566;-70
2021/11/12 11:32:43;;;;;;;44.83;38.20;;;11.50;99.90;;;;;;5071209;28;20471;-70
2021/11/12 11:35:10;;;;;;;47.23;37.80;;;11.70;99.90;;;;;;5073418;28;20467;-69
2021/11/12 11:37:38;;;;;;;42.93;38.20;;;11.30;99.90;;;;;;5065292;28;20486;-69
2021/11/12 11:40:07;;;;;;;47.60;36.57;;;11.30;99.90;;;;;;5078837;28;20807;-72
2021/11/12 11:42:38;;;;;;;45.10;37.50;;;11.70;99.90;;;;;;5072809;28;20482;-69
2021/11/12 11:45:06;;;;;;;46.47;38.80;;;12.20;99.90;;;;;;5075235;28;20513;-70
2021/11/12 11:47:34;;;;;;;44.37;36.03;;;12.40;99.90;;;;;;5074001;28;20474;-69
2021/11/12 11:50:02;;;;;;;42.97;35.87;;;12.60;99.90;;;;;;5069662;28;20463;-70
2021/11/12 11:52:31;;;;;;;44.93;39.13;;;12.90;99.90;;;;;;5069284;28;20548;-70
2021/11/12 11:54:58;;;;;;;46.60;36.80;;;13.00;99.90;;;;;;5077449;28;20489;-73
2021/11/12 11:57:27;;;;;;;41.67;36.83;;;13.10;99.90;;;;;;5069773;28;20478;-69
2021/11/12 12:00:22;;;;;;;40.63;35.27;;;13.00;99.90;;;;;;5070940;28;20516;-69
2021/11/12 12:02:49;;;;;;;42.10;36.47;;;13.00;99.90;;;;;;5074027;28;20458;-73
2021/11/12 12:05:16;;;;;;;43.73;36.17;;;13.20;99.90;;;;;;5071206;28;20465;-74
2021/11/12 12:07:50;;;;;;;45.47;37.47;;;12.90;99.90;;;;;;5070942;28;20462;-71
2021/11/12 12:10:25;;;;;;;42.63;34.87;;;12.90;99.90;;;;;;5080451;28;20457;-72
2021/11/12 12:12:58;;;;;;;40.00;33.67;;;13.40;99.90;;;;;;5074519;28;20465;-72
2021/11/12 12:15:45;;;;;;;40.37;35.63;;;13.60;99.90;;;;;;5073643;28;21078;-73
2021/11/12 12:18:15;;;;;;;38.83;34.80;;;14.00;99.90;;;;;;5070841;28;20525;-69
2021/11/12 12:20:58;;;;;;;41.90;35.37;;;14.30;99.90;;;;;;5073458;28;20505;-71
2021/11/12 13:22:47;;;;;;;29.67;27.00;;;13.20;99.90;;;;;;5070449;28;20549;-72
2021/11/12 13:25:26;;;;;;;31.60;28.37;;;13.40;99.90;;;;;;5078788;28;20528;-71
2021/11/12 13:28:13;;;;;;;33.13;27.57;;;13.30;99.90;;;;;;5076335;28;20576;-74
2021/11/12 13:30:41;;;;;;;30.37;27.37;;;13.10;99.90;;;;;;5078438;28;20489;-70
2021/11/12 13:33:37;;;;;;;31.77;27.43;;;13.10;99.90;;;;;;5076204;28;20454;-70
2021/11/12 13:36:19;;;;;;;36.03;28.60;;;12.90;99.90;;;;;;5074697;28;20477;-70
2021/11/12 13:38:51;;;;;;;32.33;26.63;;;12.50;99.90;;;;;;5075660;28;20540;-70
2021/11/12 13:41:19;;;;;;;30.40;27.30;;;12.60;99.90;;;;;;5072731;28;20451;-70
2021/11/12 13:43:48;;;;;;;27.97;25.40;;;12.40;99.90;;;;;;5075278;28;20469;-72
2021/11/12 13:46:16;;;;;;;30.37;27.00;;;12.50;99.90;;;;;;5081711;28;20545;-70
2021/11/12 13:48:49;;;;;;;29.17;26.20;;;12.40;99.90;;;;;;5070721;28;20535;-70
2021/11/12 13:51:19;;;;;;;29.83;26.63;;;12.20;99.90;;;;;;5070374;28;20517;-75
2021/11/12 13:53:50;;;;;;;30.10;26.37;;;12.10;99.90;;;;;;5070828;28;21097;-70
2021/11/12 13:56:18;;;;;;;28.00;25.20;;;12.10;99.90;;;;;;5074005;28;20458;-72
2021/11/12 13:58:45;;;;;;;30.33;27.30;;;12.20;99.90;;;;;;5071356;28;20501;-70
2021/11/12 14:01:24;;;;;;;29.13;26.00;;;12.10;99.90;;;;;;5075890;28;20467;-70
2021/11/12 14:03:53;;;;;;;29.47;26.77;;;12.30;99.90;;;;;;5074546;28;20468;-71
2021/11/12 14:06:21;;;;;;;29.33;26.43;;;12.30;99.90;;;;;;5068555;28;20494;-70
2021/11/12 14:08:52;;;;;;;30.20;26.10;;;12.20;99.90;;;;;;5072964;28;20494;-72
2021/11/12 14:11:22;;;;;;;29.90;27.00;;;12.00;99.90;;;;;;5076443;28;20997;-72
2021/11/12 14:13:51;;;;;;;29.60;26.70;;;11.80;99.90;;;;;;5073769;28;20455;-70
2021/11/12 14:16:27;;;;;;;29.37;26.53;;;11.80;99.90;;;;;;5075042;28;21269;-70
2021/11/12 14:21:54;;;;;;;33.63;27.13;;;11.70;99.90;;;;;;5051192;28;20920;-70
2021/11/12 14:24:45;;;;;;;28.87;26.00;;;11.40;99.90;;;;;;5064350;28;20641;-70
2021/11/12 14:27:25;;;;;;;30.83;27.53;;;11.40;99.90;;;;;;5079579;28;20479;-70
2021/11/12 14:35:32;;;;;;;31.87;28.20;;;11.00;99.90;;;;;;5068980;28;20473;-74
2021/11/12 14:38:13;;;;;;;32.77;27.77;;;10.80;99.90;;;;;;5069627;28;20493;-70
2021/11/12 14:43:41;;;;;;;30.60;27.30;;;10.60;99.90;;;;;;5056440;28;20982;-73
2021/11/12 14:46:16;;;;;;;32.17;28.40;;;10.50;99.90;;;;;;5071887;28;20941;-70
2021/11/12 14:48:54;;;;;;;34.13;27.93;;;10.50;99.90;;;;;;5086516;28;20461;-70
2021/11/12 14:51:24;;;;;;;35.07;27.97;;;10.40;99.90;;;;;;5073089;28;20494;-70
2021/11/12 14:53:53;;;;;;;28.13;25.53;;;10.40;99.90;;;;;;5075221;28;20454;-70
2021/11/12 14:56:23;;;;;;;30.53;27.80;;;10.40;99.90;;;;;;5074609;28;20471;-74
2021/11/12 14:58:55;;;;;;;31.13;26.50;;;10.30;99.90;;;;;;5073748;28;20485;-73
2021/11/12 15:01:25;;;;;;;29.67;26.40;;;10.20;99.90;;;;;;5074968;28;20982;-73
2021/11/12 15:03:53;;;;;;;29.53;26.60;;;10.10;99.90;;;;;;5076220;28;20473;-70
2021/11/12 15:06:24;;;;;;;32.47;27.77;;;9.90;99.90;;;;;;5075013;28;20455;-73
2021/11/12 15:08:54;;;;;;;29.73;26.60;;;9.90;99.90;;;;;;5078354;28;21016;-73
2021/11/12 15:11:26;;;;;;;31.47;28.30;;;9.80;99.90;;;;;;5066572;28;20481;-70
2021/11/12 15:14:02;;;;;;;32.03;28.67;;;9.70;99.90;;;;;;5066825;28;20458;-70
2021/11/12 15:16:29;;;;;;;31.70;26.67;;;9.60;99.90;;;;;;5077121;28;20515;-69
2021/11/12 15:18:58;;;;;;;36.57;27.90;;;9.60;99.90;;;;;;5072758;28;20490;-69
2021/11/12 15:21:28;;;;;;;30.80;27.63;;;9.50;99.90;;;;;;5070863;28;20469;-70
2021/11/12 15:24:04;;;;;;;30.47;26.90;;;9.30;99.90;;;;;;5074220;28;21528;-71
2021/11/12 15:26:56;;;;;;;31.57;28.20;;;9.30;99.90;;;;;;5068755;28;20508;-74
2021/11/12 15:29:26;;;;;;;33.67;27.50;;;9.20;99.90;;;;;;5063547;28;21125;-72
2021/11/12 15:32:08;;;;;;;35.80;26.80;;;9.20;99.90;;;;;;5068572;28;20752;-70
2021/11/12 15:34:39;;;;;;;30.47;27.27;;;9.10;99.90;;;;;;5070397;28;21144;-72
2021/11/12 15:37:09;;;;;;;36.03;29.00;;;9.10;99.90;;;;;;5065847;28;20463;-73
2021/11/12 15:39:51;;;;;;;31.30;27.67;;;9.10;99.90;;;;;;5071366;28;20524;-69
2021/11/12 15:45:22;;;;;;;31.30;28.10;;;8.90;99.90;;;;;;5012335;28;21000;-70
2021/11/12 15:47:52;;;;;;;40.90;29.07;;;8.80;99.90;;;;;;5059816;28;20467;-70
2021/11/12 15:50:22;;;;;;;31.83;28.60;;;8.80;99.90;;;;;;5071304;28;20466;-73
2021/11/12 15:53:01;;;;;;;30.17;27.13;;;8.80;99.90;;;;;;5075576;28;20465;-70
2021/11/12 15:55:36;;;;;;;30.70;27.70;;;8.60;99.90;;;;;;5066974;28;20491;-72
2021/11/12 15:58:25;;;;;;;29.93;26.90;;;8.50;99.90;;;;;;5075321;28;20498;-74
2021/11/12 16:01:18;;;;;;;32.10;28.00;;;8.40;99.90;;;;;;5075136;28;20461;-71
2021/11/12 16:14:44;;;;;;;29.30;26.37;;;8.10;99.90;;;;;;5068982;28;20620;-72
2021/11/12 16:19:57;;;;;;;30.13;26.93;;;8.00;99.90;;;;;;5061319;28;22931;-69
2021/11/12 16:25:15;;;;;;;31.67;28.50;;;7.90;99.90;;;;;;5072459;28;20824;-67
2021/11/12 16:27:45;;;;;;;30.47;27.27;;;7.80;99.90;;;;;;5075150;28;20475;-69
2021/11/12 16:30:15;;;;;;;35.80;30.60;;;7.80;99.90;;;;;;5073947;28;20493;-71
2021/11/12 16:32:44;;;;;;;36.73;29.30;;;7.80;99.90;;;;;;5066920;28;20465;-72
2021/11/12 16:35:16;;;;;;;32.10;28.80;;;7.70;99.90;;;;;;5062813;28;20466;-70
2021/11/12 16:37:45;;;;;;;31.83;28.50;;;7.70;99.90;;;;;;5072193;28;20498;-69
2021/11/12 16:40:16;;;;;;;32.10;27.87;;;7.60;99.90;;;;;;5077892;28;20459;-72
2021/11/12 16:45:49;;;;;;;29.53;26.70;;;7.50;99.90;;;;;;5073467;28;20453;-70
2021/11/12 16:48:27;;;;;;;31.20;28.00;;;7.50;99.90;;;;;;5069209;28;20474;-69
2021/11/12 16:54:01;;;;;;;31.50;26.90;;;7.30;99.90;;;;;;5033975;28;21442;-68